sensor_id;sensor_type;location;lat;lon;timestamp;P1;durP1;ratioP1;P2;durP2;ratioP2
32214;SDS011;18708;53.124;23.190;2023-05-17T00:02:16;5.40;;;4.78;;
32214;SDS011;18708;53.124;23.190;2023-05-17T00:04:42;6.30;;;5.03;;
32214;SDS011;18708;53.124;23.190;2023-05-17T00:07:09;6.10;;;5.38;;
32214;SDS011;18708;53.124;23.190;2023-05-17T00:09:34;6.70;;;5.28;;
32214;SDS011;18708;53.124;23.190;2023-05-17T00:12:00;6.70;;;5.38;;
32214;SDS011;18708;53.124;23.190;2023-05-17T00:14:26;7.07;;;5.00;;
32214;SDS011;18708;53.124;23.190;2023-05-17T00:16:52;5.68;;;4.65;;
32214;SDS011;18708;53.124;23.190;2023-05-17T00:19:17;6.88;;;5.10;;
32214;SDS011;18708;53.124;23.190;2023-05-17T00:21:43;5.65;;;4.88;;
32214;SDS011;18708;53.124;23.190;2023-05-17T00:24:09;7.03;;;5.90;;
32214;SDS011;18708;53.124;23.190;2023-05-17T00:26:34;6.25;;;5.40;;
32214;SDS011;18708;53.124;23.190;2023-05-17T00:29:00;6.97;;;5.15;;
32214;SDS011;18708;53.124;23.190;2023-05-17T00:31:26;5.93;;;5.32;;
32214;SDS011;18708;53.124;23.190;2023-05-17T00:33:51;8.15;;;5.97;;
32214;SDS011;18708;53.124;23.190;2023-05-17T00:36:17;6.90;;;5.50;;
32214;SDS011;18708;53.124;23.190;2023-05-17T00:38:43;5.68;;;4.95;;
32214;SDS011;18708;53.124;23.190;2023-05-17T00:41:08;5.20;;;4.68;;
32214;SDS011;18708;53.124;23.190;2023-05-17T00:43:34;5.93;;;5.35;;
32214;SDS011;18708;53.124;23.190;2023-05-17T00:46:00;6.72;;;6.03;;
32214;SDS011;18708;53.124;23.190;2023-05-17T00:48:26;7.85;;;6.57;;
32214;SDS011;18708;53.124;23.190;2023-05-17T00:50:54;5.55;;;4.97;;
32214;SDS011;18708;53.124;23.190;2023-05-17T00:53:21;5.70;;;4.78;;
32214;SDS011;18708;53.124;23.190;2023-05-17T00:55:46;9.35;;;7.25;;
32214;SDS011;18708;53.124;23.190;2023-05-17T00:58:14;7.95;;;6.60;;
32214;SDS011;18708;53.124;23.190;2023-05-17T01:00:40;6.75;;;5.53;;
32214;SDS011;18708;53.124;23.190;2023-05-17T01:03:07;6.15;;;4.93;;
32214;SDS011;18708;53.124;23.190;2023-05-17T01:05:33;7.13;;;4.93;;
32214;SDS011;18708;53.124;23.190;2023-05-17T01:07:58;6.57;;;4.57;;
32214;SDS011;18708;53.124;23.190;2023-05-17T01:13:08;5.15;;;4.65;;
32214;SDS011;18708;53.124;23.190;2023-05-17T01:18:34;5.00;;;4.38;;
32214;SDS011;18708;53.124;23.190;2023-05-17T01:21:23;5.95;;;4.88;;
32214;SDS011;18708;53.124;23.190;2023-05-17T01:26:57;5.22;;;4.68;;
32214;SDS011;18708;53.124;23.190;2023-05-17T01:29:25;5.63;;;4.90;;
32214;SDS011;18708;53.124;23.190;2023-05-17T01:31:53;4.03;;;3.67;;
32214;SDS011;18708;53.124;23.190;2023-05-17T01:34:27;4.93;;;4.43;;
32214;SDS011;18708;53.124;23.190;2023-05-17T01:36:53;4.18;;;3.78;;
32214;SDS011;18708;53.124;23.190;2023-05-17T01:39:21;4.85;;;4.45;;
32214;SDS011;18708;53.124;23.190;2023-05-17T01:41:50;4.70;;;4.00;;
32214;SDS011;18708;53.124;23.190;2023-05-17T01:47:23;4.65;;;3.92;;
32214;SDS011;18708;53.124;23.190;2023-05-17T01:50:14;4.40;;;3.85;;
32214;SDS011;18708;53.124;23.190;2023-05-17T01:52:49;4.80;;;4.38;;
32214;SDS011;18708;53.124;23.190;2023-05-17T01:55:21;4.90;;;4.40;;
32214;SDS011;18708;53.124;23.190;2023-05-17T01:57:58;5.60;;;4.43;;
32214;SDS011;18708;53.124;23.190;2023-05-17T02:00:27;4.78;;;3.90;;
32214;SDS011;18708;53.124;23.190;2023-05-17T02:02:54;5.40;;;4.00;;
32214;SDS011;18708;53.124;23.190;2023-05-17T02:05:20;4.85;;;4.40;;
32214;SDS011;18708;53.124;23.190;2023-05-17T02:07:45;5.25;;;4.75;;
32214;SDS011;18708;53.124;23.190;2023-05-17T02:10:11;4.28;;;3.83;;
32214;SDS011;18708;53.124;23.190;2023-05-17T02:12:37;4.15;;;3.70;;
32214;SDS011;18708;53.124;23.190;2023-05-17T02:15:03;4.88;;;4.35;;
32214;SDS011;18708;53.124;23.190;2023-05-17T02:17:29;4.13;;;3.72;;
32214;SDS011;18708;53.124;23.190;2023-05-17T02:19:55;5.35;;;4.78;;
32214;SDS011;18708;53.124;23.190;2023-05-17T02:22:20;5.35;;;4.85;;
32214;SDS011;18708;53.124;23.190;2023-05-17T02:24:46;4.20;;;3.72;;
32214;SDS011;18708;53.124;23.190;2023-05-17T02:27:12;3.97;;;3.58;;
32214;SDS011;18708;53.124;23.190;2023-05-17T02:29:38;4.03;;;3.70;;
32214;SDS011;18708;53.124;23.190;2023-05-17T02:32:04;5.32;;;4.82;;
32214;SDS011;18708;53.124;23.190;2023-05-17T02:34:30;5.53;;;4.80;;
32214;SDS011;18708;53.124;23.190;2023-05-17T02:36:56;5.72;;;5.15;;
32214;SDS011;18708;53.124;23.190;2023-05-17T02:39:21;5.90;;;5.32;;
32214;SDS011;18708;53.124;23.190;2023-05-17T02:41:47;5.03;;;4.53;;
32214;SDS011;18708;53.124;23.190;2023-05-17T02:44:13;6.40;;;4.85;;
32214;SDS011;18708;53.124;23.190;2023-05-17T02:46:39;5.03;;;4.53;;
32214;SDS011;18708;53.124;23.190;2023-05-17T02:49:04;5.80;;;4.97;;
32214;SDS011;18708;53.124;23.190;2023-05-17T02:51:30;4.40;;;4.00;;
32214;SDS011;18708;53.124;23.190;2023-05-17T02:53:56;5.38;;;4.72;;
32214;SDS011;18708;53.124;23.190;2023-05-17T02:56:21;6.47;;;5.30;;
32214;SDS011;18708;53.124;23.190;2023-05-17T02:58:47;4.43;;;3.97;;
32214;SDS011;18708;53.124;23.190;2023-05-17T03:01:12;6.18;;;5.57;;
32214;SDS011;18708;53.124;23.190;2023-05-17T03:03:38;6.25;;;4.93;;
32214;SDS011;18708;53.124;23.190;2023-05-17T03:06:04;6.25;;;4.88;;
32214;SDS011;18708;53.124;23.190;2023-05-17T03:08:29;5.43;;;4.57;;
32214;SDS011;18708;53.124;23.190;2023-05-17T03:10:55;7.38;;;5.35;;
32214;SDS011;18708;53.124;23.190;2023-05-17T03:13:21;7.82;;;5.45;;
32214;SDS011;18708;53.124;23.190;2023-05-17T03:15:47;5.82;;;5.00;;
32214;SDS011;18708;53.124;23.190;2023-05-17T03:18:12;6.70;;;6.00;;
32214;SDS011;18708;53.124;23.190;2023-05-17T03:20:38;6.07;;;5.47;;
32214;SDS011;18708;53.124;23.190;2023-05-17T03:23:04;5.82;;;5.30;;
32214;SDS011;18708;53.124;23.190;2023-05-17T03:25:30;8.63;;;4.88;;
32214;SDS011;18708;53.124;23.190;2023-05-17T03:27:55;8.35;;;5.90;;
32214;SDS011;18708;53.124;23.190;2023-05-17T03:30:21;7.10;;;5.70;;
32214;SDS011;18708;53.124;23.190;2023-05-17T03:32:47;6.65;;;5.95;;
32214;SDS011;18708;53.124;23.190;2023-05-17T03:35:12;6.85;;;6.03;;
32214;SDS011;18708;53.124;23.190;2023-05-17T03:37:38;6.75;;;5.82;;
32214;SDS011;18708;53.124;23.190;2023-05-17T03:40:04;6.95;;;6.22;;
32214;SDS011;18708;53.124;23.190;2023-05-17T03:42:30;6.22;;;5.57;;
32214;SDS011;18708;53.124;23.190;2023-05-17T03:44:56;8.70;;;5.22;;
32214;SDS011;18708;53.124;23.190;2023-05-17T03:47:22;6.70;;;6.00;;
32214;SDS011;18708;53.124;23.190;2023-05-17T03:49:48;8.77;;;6.45;;
32214;SDS011;18708;53.124;23.190;2023-05-17T03:52:14;8.63;;;5.53;;
32214;SDS011;18708;53.124;23.190;2023-05-17T03:54:39;9.73;;;6.85;;
32214;SDS011;18708;53.124;23.190;2023-05-17T03:57:05;7.82;;;6.07;;
32214;SDS011;18708;53.124;23.190;2023-05-17T03:59:31;7.78;;;6.55;;
32214;SDS011;18708;53.124;23.190;2023-05-17T04:01:56;7.90;;;6.60;;
32214;SDS011;18708;53.124;23.190;2023-05-17T04:04:22;7.93;;;6.80;;
32214;SDS011;18708;53.124;23.190;2023-05-17T04:06:47;10.18;;;7.43;;
32214;SDS011;18708;53.124;23.190;2023-05-17T04:09:13;8.43;;;7.15;;
32214;SDS011;18708;53.124;23.190;2023-05-17T04:11:39;7.55;;;6.85;;
32214;SDS011;18708;53.124;23.190;2023-05-17T04:14:06;7.68;;;6.88;;
32214;SDS011;18708;53.124;23.190;2023-05-17T04:16:32;9.18;;;7.63;;
32214;SDS011;18708;53.124;23.190;2023-05-17T04:18:58;12.13;;;9.32;;
32214;SDS011;18708;53.124;23.190;2023-05-17T04:21:24;15.45;;;10.23;;
32214;SDS011;18708;53.124;23.190;2023-05-17T04:23:50;9.65;;;8.55;;
32214;SDS011;18708;53.124;23.190;2023-05-17T04:26:16;8.70;;;7.63;;
32214;SDS011;18708;53.124;23.190;2023-05-17T04:28:42;11.00;;;8.73;;
32214;SDS011;18708;53.124;23.190;2023-05-17T04:31:08;8.70;;;7.47;;
32214;SDS011;18708;53.124;23.190;2023-05-17T04:33:34;11.13;;;8.40;;
32214;SDS011;18708;53.124;23.190;2023-05-17T04:36:00;15.35;;;10.15;;
32214;SDS011;18708;53.124;23.190;2023-05-17T04:38:27;20.17;;;10.55;;
32214;SDS011;18708;53.124;23.190;2023-05-17T04:40:52;11.48;;;8.90;;
32214;SDS011;18708;53.124;23.190;2023-05-17T04:43:18;29.83;;;14.00;;
32214;SDS011;18708;53.124;23.190;2023-05-17T04:45:43;20.00;;;11.32;;
32214;SDS011;18708;53.124;23.190;2023-05-17T04:48:09;16.50;;;9.98;;
32214;SDS011;18708;53.124;23.190;2023-05-17T04:50:35;10.25;;;8.20;;
32214;SDS011;18708;53.124;23.190;2023-05-17T04:53:01;9.40;;;7.38;;
32214;SDS011;18708;53.124;23.190;2023-05-17T04:55:27;8.48;;;7.15;;
32214;SDS011;18708;53.124;23.190;2023-05-17T04:57:52;10.25;;;7.75;;
32214;SDS011;18708;53.124;23.190;2023-05-17T05:00:18;10.15;;;7.38;;
32214;SDS011;18708;53.124;23.190;2023-05-17T05:02:46;9.93;;;7.80;;
32214;SDS011;18708;53.124;23.190;2023-05-17T05:05:12;11.52;;;8.13;;
32214;SDS011;18708;53.124;23.190;2023-05-17T05:07:38;10.13;;;7.72;;
32214;SDS011;18708;53.124;23.190;2023-05-17T05:10:04;11.05;;;8.02;;
32214;SDS011;18708;53.124;23.190;2023-05-17T05:12:30;11.52;;;7.80;;
32214;SDS011;18708;53.124;23.190;2023-05-17T05:14:56;11.50;;;8.13;;
32214;SDS011;18708;53.124;23.190;2023-05-17T05:17:21;13.40;;;8.27;;
32214;SDS011;18708;53.124;23.190;2023-05-17T05:19:47;10.00;;;7.80;;
32214;SDS011;18708;53.124;23.190;2023-05-17T05:22:13;10.23;;;7.60;;
32214;SDS011;18708;53.124;23.190;2023-05-17T05:24:38;9.88;;;7.75;;
32214;SDS011;18708;53.124;23.190;2023-05-17T05:27:04;9.30;;;7.30;;
32214;SDS011;18708;53.124;23.190;2023-05-17T05:29:30;10.18;;;6.90;;
32214;SDS011;18708;53.124;23.190;2023-05-17T05:31:56;9.38;;;7.00;;
32214;SDS011;18708;53.124;23.190;2023-05-17T05:34:21;8.88;;;7.35;;
32214;SDS011;18708;53.124;23.190;2023-05-17T05:36:47;7.85;;;6.75;;
32214;SDS011;18708;53.124;23.190;2023-05-17T05:39:13;8.18;;;6.40;;
32214;SDS011;18708;53.124;23.190;2023-05-17T05:41:40;9.05;;;6.47;;
32214;SDS011;18708;53.124;23.190;2023-05-17T05:44:05;8.68;;;5.97;;
32214;SDS011;18708;53.124;23.190;2023-05-17T05:46:31;9.15;;;6.80;;
32214;SDS011;18708;53.124;23.190;2023-05-17T05:48:57;8.65;;;7.15;;
32214;SDS011;18708;53.124;23.190;2023-05-17T05:51:22;9.15;;;7.43;;
32214;SDS011;18708;53.124;23.190;2023-05-17T05:53:48;8.70;;;7.65;;
32214;SDS011;18708;53.124;23.190;2023-05-17T05:56:14;9.88;;;7.45;;
32214;SDS011;18708;53.124;23.190;2023-05-17T05:58:40;8.98;;;7.30;;
32214;SDS011;18708;53.124;23.190;2023-05-17T06:01:05;9.98;;;7.90;;
32214;SDS011;18708;53.124;23.190;2023-05-17T06:03:31;8.55;;;7.20;;
32214;SDS011;18708;53.124;23.190;2023-05-17T06:05:57;8.45;;;6.55;;
32214;SDS011;18708;53.124;23.190;2023-05-17T06:08:22;9.38;;;6.85;;
32214;SDS011;18708;53.124;23.190;2023-05-17T06:10:48;9.98;;;8.15;;
32214;SDS011;18708;53.124;23.190;2023-05-17T06:13:13;10.70;;;8.15;;
32214;SDS011;18708;53.124;23.190;2023-05-17T06:15:39;13.63;;;8.82;;
32214;SDS011;18708;53.124;23.190;2023-05-17T06:18:05;12.82;;;9.20;;
32214;SDS011;18708;53.124;23.190;2023-05-17T06:20:31;11.40;;;8.88;;
32214;SDS011;18708;53.124;23.190;2023-05-17T06:22:57;14.85;;;10.27;;
32214;SDS011;18708;53.124;23.190;2023-05-17T06:25:22;13.60;;;9.65;;
32214;SDS011;18708;53.124;23.190;2023-05-17T06:27:49;13.82;;;10.82;;
32214;SDS011;18708;53.124;23.190;2023-05-17T06:30:14;14.68;;;11.65;;
32214;SDS011;18708;53.124;23.190;2023-05-17T06:32:40;16.08;;;11.73;;
32214;SDS011;18708;53.124;23.190;2023-05-17T06:35:06;14.73;;;11.32;;
32214;SDS011;18708;53.124;23.190;2023-05-17T06:37:32;16.10;;;12.10;;
32214;SDS011;18708;53.124;23.190;2023-05-17T06:40:05;16.15;;;12.88;;
32214;SDS011;18708;53.124;23.190;2023-05-17T06:42:32;15.82;;;12.55;;
32214;SDS011;18708;53.124;23.190;2023-05-17T06:44:57;16.02;;;12.43;;
32214;SDS011;18708;53.124;23.190;2023-05-17T06:47:23;16.50;;;12.73;;
32214;SDS011;18708;53.124;23.190;2023-05-17T06:49:49;16.20;;;12.15;;
32214;SDS011;18708;53.124;23.190;2023-05-17T06:52:15;17.67;;;14.02;;
32214;SDS011;18708;53.124;23.190;2023-05-17T06:54:41;17.05;;;13.25;;
32214;SDS011;18708;53.124;23.190;2023-05-17T06:57:06;17.13;;;13.00;;
32214;SDS011;18708;53.124;23.190;2023-05-17T06:59:34;18.60;;;13.20;;
32214;SDS011;18708;53.124;23.190;2023-05-17T07:02:02;19.45;;;14.13;;
32214;SDS011;18708;53.124;23.190;2023-05-17T07:04:28;18.83;;;13.57;;
32214;SDS011;18708;53.124;23.190;2023-05-17T07:06:54;19.65;;;14.43;;
32214;SDS011;18708;53.124;23.190;2023-05-17T07:09:20;23.15;;;15.00;;
32214;SDS011;18708;53.124;23.190;2023-05-17T07:11:46;18.70;;;14.43;;
32214;SDS011;18708;53.124;23.190;2023-05-17T07:14:12;20.77;;;13.80;;
32214;SDS011;18708;53.124;23.190;2023-05-17T07:16:37;19.52;;;14.60;;
32214;SDS011;18708;53.124;23.190;2023-05-17T07:19:03;16.73;;;13.13;;
32214;SDS011;18708;53.124;23.190;2023-05-17T07:21:29;19.33;;;13.98;;
32214;SDS011;18708;53.124;23.190;2023-05-17T07:23:55;16.98;;;12.98;;
32214;SDS011;18708;53.124;23.190;2023-05-17T07:26:21;18.52;;;13.20;;
32214;SDS011;18708;53.124;23.190;2023-05-17T07:28:47;20.10;;;13.55;;
32214;SDS011;18708;53.124;23.190;2023-05-17T07:31:13;19.55;;;14.23;;
32214;SDS011;18708;53.124;23.190;2023-05-17T07:33:39;20.83;;;14.30;;
32214;SDS011;18708;53.124;23.190;2023-05-17T07:36:05;15.88;;;12.80;;
32214;SDS011;18708;53.124;23.190;2023-05-17T07:38:31;15.18;;;12.65;;
32214;SDS011;18708;53.124;23.190;2023-05-17T07:40:59;15.10;;;12.48;;
32214;SDS011;18708;53.124;23.190;2023-05-17T07:43:25;15.95;;;11.68;;
32214;SDS011;18708;53.124;23.190;2023-05-17T07:45:51;15.15;;;12.23;;
32214;SDS011;18708;53.124;23.190;2023-05-17T07:48:17;15.20;;;12.18;;
32214;SDS011;18708;53.124;23.190;2023-05-17T07:50:42;16.88;;;13.48;;
32214;SDS011;18708;53.124;23.190;2023-05-17T07:53:08;17.15;;;12.48;;
32214;SDS011;18708;53.124;23.190;2023-05-17T07:55:34;17.80;;;13.10;;
32214;SDS011;18708;53.124;23.190;2023-05-17T07:58:00;14.77;;;12.07;;
32214;SDS011;18708;53.124;23.190;2023-05-17T08:00:25;17.35;;;13.45;;
32214;SDS011;18708;53.124;23.190;2023-05-17T08:02:51;15.02;;;12.13;;
32214;SDS011;18708;53.124;23.190;2023-05-17T08:05:17;17.10;;;13.10;;
32214;SDS011;18708;53.124;23.190;2023-05-17T08:07:43;17.65;;;13.82;;
32214;SDS011;18708;53.124;23.190;2023-05-17T08:10:09;16.50;;;12.90;;
32214;SDS011;18708;53.124;23.190;2023-05-17T08:12:35;16.67;;;13.45;;
32214;SDS011;18708;53.124;23.190;2023-05-17T08:15:01;17.88;;;13.18;;
32214;SDS011;18708;53.124;23.190;2023-05-17T08:17:26;17.40;;;12.65;;
32214;SDS011;18708;53.124;23.190;2023-05-17T08:19:52;15.55;;;12.95;;
32214;SDS011;18708;53.124;23.190;2023-05-17T08:22:18;18.05;;;13.63;;
32214;SDS011;18708;53.124;23.190;2023-05-17T08:24:43;16.42;;;13.10;;
32214;SDS011;18708;53.124;23.190;2023-05-17T08:27:09;18.65;;;13.35;;
32214;SDS011;18708;53.124;23.190;2023-05-17T08:29:35;17.88;;;13.52;;
32214;SDS011;18708;53.124;23.190;2023-05-17T08:32:01;16.63;;;13.88;;
32214;SDS011;18708;53.124;23.190;2023-05-17T08:34:27;16.23;;;12.80;;
32214;SDS011;18708;53.124;23.190;2023-05-17T08:36:53;17.00;;;14.20;;
32214;SDS011;18708;53.124;23.190;2023-05-17T08:39:19;16.23;;;13.27;;
32214;SDS011;18708;53.124;23.190;2023-05-17T08:41:47;15.55;;;12.70;;
32214;SDS011;18708;53.124;23.190;2023-05-17T08:44:13;12.82;;;10.88;;
32214;SDS011;18708;53.124;23.190;2023-05-17T08:46:43;13.75;;;11.48;;
32214;SDS011;18708;53.124;23.190;2023-05-17T08:49:18;16.27;;;11.77;;
32214;SDS011;18708;53.124;23.190;2023-05-17T08:51:50;13.50;;;11.27;;
32214;SDS011;18708;53.124;23.190;2023-05-17T08:54:17;15.48;;;12.70;;
32214;SDS011;18708;53.124;23.190;2023-05-17T08:56:43;14.57;;;10.88;;
32214;SDS011;18708;53.124;23.190;2023-05-17T08:59:11;13.80;;;11.35;;
32214;SDS011;18708;53.124;23.190;2023-05-17T09:01:40;13.27;;;10.88;;
32214;SDS011;18708;53.124;23.190;2023-05-17T09:04:08;12.65;;;10.32;;
32214;SDS011;18708;53.124;23.190;2023-05-17T09:06:34;14.32;;;10.48;;
32214;SDS011;18708;53.124;23.190;2023-05-17T09:09:01;12.45;;;9.68;;
32214;SDS011;18708;53.124;23.190;2023-05-17T09:11:28;12.63;;;9.75;;
32214;SDS011;18708;53.124;23.190;2023-05-17T09:13:57;11.48;;;9.98;;
32214;SDS011;18708;53.124;23.190;2023-05-17T09:16:24;11.63;;;9.05;;
32214;SDS011;18708;53.124;23.190;2023-05-17T09:18:53;13.40;;;9.45;;
32214;SDS011;18708;53.124;23.190;2023-05-17T09:21:22;10.20;;;8.55;;
32214;SDS011;18708;53.124;23.190;2023-05-17T09:23:52;10.73;;;8.35;;
32214;SDS011;18708;53.124;23.190;2023-05-17T09:26:18;12.82;;;9.45;;
32214;SDS011;18708;53.124;23.190;2023-05-17T09:28:45;11.13;;;8.98;;
32214;SDS011;18708;53.124;23.190;2023-05-17T09:31:13;12.27;;;9.13;;
32214;SDS011;18708;53.124;23.190;2023-05-17T09:33:47;11.95;;;9.48;;
32214;SDS011;18708;53.124;23.190;2023-05-17T09:36:17;11.57;;;8.90;;
32214;SDS011;18708;53.124;23.190;2023-05-17T09:38:54;11.65;;;8.65;;
32214;SDS011;18708;53.124;23.190;2023-05-17T09:41:25;9.38;;;7.72;;
32214;SDS011;18708;53.124;23.190;2023-05-17T09:43:51;10.68;;;7.65;;
32214;SDS011;18708;53.124;23.190;2023-05-17T09:46:20;9.75;;;7.38;;
32214;SDS011;18708;53.124;23.190;2023-05-17T09:48:46;8.75;;;6.75;;
32214;SDS011;18708;53.124;23.190;2023-05-17T09:51:17;8.10;;;6.50;;
32214;SDS011;18708;53.124;23.190;2023-05-17T09:53:43;7.75;;;6.22;;
32214;SDS011;18708;53.124;23.190;2023-05-17T09:56:09;7.93;;;5.35;;
32214;SDS011;18708;53.124;23.190;2023-05-17T09:58:36;6.72;;;5.50;;
32214;SDS011;18708;53.124;23.190;2023-05-17T10:01:03;6.25;;;5.65;;
32214;SDS011;18708;53.124;23.190;2023-05-17T10:03:30;5.30;;;4.55;;
32214;SDS011;18708;53.124;23.190;2023-05-17T10:05:59;5.55;;;4.22;;
32214;SDS011;18708;53.124;23.190;2023-05-17T10:08:29;4.85;;;3.80;;
32214;SDS011;18708;53.124;23.190;2023-05-17T10:11:17;4.18;;;3.45;;
32214;SDS011;18708;53.124;23.190;2023-05-17T10:16:29;3.72;;;3.33;;
32214;SDS011;18708;53.124;23.190;2023-05-17T10:18:57;3.78;;;3.15;;
32214;SDS011;18708;53.124;23.190;2023-05-17T10:21:23;4.97;;;3.10;;
32214;SDS011;18708;53.124;23.190;2023-05-17T10:23:50;3.47;;;3.13;;
32214;SDS011;18708;53.124;23.190;2023-05-17T10:26:17;4.70;;;3.38;;
32214;SDS011;18708;53.124;23.190;2023-05-17T10:28:44;4.00;;;3.33;;
32214;SDS011;18708;53.124;23.190;2023-05-17T10:31:14;5.38;;;3.65;;
32214;SDS011;18708;53.124;23.190;2023-05-17T10:33:40;4.88;;;3.75;;
32214;SDS011;18708;53.124;23.190;2023-05-17T10:36:08;4.53;;;3.60;;
32214;SDS011;18708;53.124;23.190;2023-05-17T10:38:37;4.03;;;3.60;;
32214;SDS011;18708;53.124;23.190;2023-05-17T10:41:02;3.30;;;3.00;;
32214;SDS011;18708;53.124;23.190;2023-05-17T10:43:28;3.65;;;3.10;;
32214;SDS011;18708;53.124;23.190;2023-05-17T10:45:56;3.00;;;2.50;;
32214;SDS011;18708;53.124;23.190;2023-05-17T10:48:24;4.40;;;3.60;;
32214;SDS011;18708;53.124;23.190;2023-05-17T10:50:53;3.58;;;2.97;;
32214;SDS011;18708;53.124;23.190;2023-05-17T10:53:18;3.40;;;2.88;;
32214;SDS011;18708;53.124;23.190;2023-05-17T10:55:44;3.25;;;2.60;;
32214;SDS011;18708;53.124;23.190;2023-05-17T11:00:40;5.30;;;3.08;;
32214;SDS011;18708;53.124;23.190;2023-05-17T11:03:25;3.33;;;3.03;;
32214;SDS011;18708;53.124;23.190;2023-05-17T11:08:43;3.78;;;3.28;;
32214;SDS011;18708;53.124;23.190;2023-05-17T11:11:18;3.35;;;3.05;;
32214;SDS011;18708;53.124;23.190;2023-05-17T11:16:16;4.82;;;3.63;;
32214;SDS011;18708;53.124;23.190;2023-05-17T11:19:27;3.85;;;3.55;;
32214;SDS011;18708;53.124;23.190;2023-05-17T11:21:36;3.30;;;3.00;;
32214;SDS011;18708;53.124;23.190;2023-05-17T11:24:10;4.80;;;3.90;;
32214;SDS011;18708;53.124;23.190;2023-05-17T11:26:44;4.28;;;3.53;;
32214;SDS011;18708;53.124;23.190;2023-05-17T11:29:10;4.82;;;3.45;;
32214;SDS011;18708;53.124;23.190;2023-05-17T11:31:40;3.95;;;2.92;;
32214;SDS011;18708;53.124;23.190;2023-05-17T11:34:08;4.28;;;3.42;;
32214;SDS011;18708;53.124;23.190;2023-05-17T11:36:48;4.13;;;3.13;;
32214;SDS011;18708;53.124;23.190;2023-05-17T11:39:17;3.13;;;2.78;;
32214;SDS011;18708;53.124;23.190;2023-05-17T11:41:51;3.40;;;3.05;;
32214;SDS011;18708;53.124;23.190;2023-05-17T11:44:24;3.33;;;2.95;;
32214;SDS011;18708;53.124;23.190;2023-05-17T11:47:03;3.95;;;3.03;;
32214;SDS011;18708;53.124;23.190;2023-05-17T11:49:35;3.17;;;2.88;;
32214;SDS011;18708;53.124;23.190;2023-05-17T11:52:02;3.08;;;2.72;;
32214;SDS011;18708;53.124;23.190;2023-05-17T11:54:28;3.55;;;3.08;;
32214;SDS011;18708;53.124;23.190;2023-05-17T11:56:55;3.38;;;3.08;;
32214;SDS011;18708;53.124;23.190;2023-05-17T11:59:23;3.55;;;3.25;;
32214;SDS011;18708;53.124;23.190;2023-05-17T12:01:49;3.65;;;3.22;;
32214;SDS011;18708;53.124;23.190;2023-05-17T12:04:22;4.35;;;3.63;;
32214;SDS011;18708;53.124;23.190;2023-05-17T12:09:15;3.28;;;2.97;;
32214;SDS011;18708;53.124;23.190;2023-05-17T12:11:41;3.30;;;3.00;;
32214;SDS011;18708;53.124;23.190;2023-05-17T12:14:08;3.28;;;2.97;;
32214;SDS011;18708;53.124;23.190;2023-05-17T12:16:37;4.30;;;3.10;;
32214;SDS011;18708;53.124;23.190;2023-05-17T12:19:15;3.47;;;2.73;;
32214;SDS011;18708;53.124;23.190;2023-05-17T12:21:45;5.68;;;2.70;;
32214;SDS011;18708;53.124;23.190;2023-05-17T12:24:11;3.42;;;3.05;;
32214;SDS011;18708;53.124;23.190;2023-05-17T12:26:43;2.97;;;2.65;;
32214;SDS011;18708;53.124;23.190;2023-05-17T12:29:10;4.30;;;3.15;;
32214;SDS011;18708;53.124;23.190;2023-05-17T12:31:47;3.30;;;2.88;;
32214;SDS011;18708;53.124;23.190;2023-05-17T12:34:16;2.50;;;2.17;;
32214;SDS011;18708;53.124;23.190;2023-05-17T12:36:43;2.70;;;2.47;;
32214;SDS011;18708;53.124;23.190;2023-05-17T12:39:12;2.30;;;2.10;;
32214;SDS011;18708;53.124;23.190;2023-05-17T12:41:38;2.22;;;2.13;;
32214;SDS011;18708;53.124;23.190;2023-05-17T12:44:06;2.55;;;2.35;;
32214;SDS011;18708;53.124;23.190;2023-05-17T12:46:32;2.55;;;2.35;;
32214;SDS011;18708;53.124;23.190;2023-05-17T12:49:04;2.67;;;2.47;;
32214;SDS011;18708;53.124;23.190;2023-05-17T12:51:39;2.70;;;2.50;;
32214;SDS011;18708;53.124;23.190;2023-05-17T12:54:07;3.88;;;2.30;;
32214;SDS011;18708;53.124;23.190;2023-05-17T12:56:32;2.60;;;2.40;;
32214;SDS011;18708;53.124;23.190;2023-05-17T12:59:11;2.60;;;2.40;;
32214;SDS011;18708;53.124;23.190;2023-05-17T13:01:40;3.28;;;2.80;;
32214;SDS011;18708;53.124;23.190;2023-05-17T13:04:10;6.63;;;4.78;;
32214;SDS011;18708;53.124;23.190;2023-05-17T13:06:44;12.20;;;7.60;;
32214;SDS011;18708;53.124;23.190;2023-05-17T13:09:11;6.10;;;4.25;;
32214;SDS011;18708;53.124;23.190;2023-05-17T13:11:37;2.58;;;2.38;;
32214;SDS011;18708;53.124;23.190;2023-05-17T13:14:08;2.65;;;2.45;;
32214;SDS011;18708;53.124;23.190;2023-05-17T13:16:37;2.53;;;2.33;;
32214;SDS011;18708;53.124;23.190;2023-05-17T13:19:12;2.30;;;2.10;;
32214;SDS011;18708;53.124;23.190;2023-05-17T13:21:38;2.42;;;2.10;;
32214;SDS011;18708;53.124;23.190;2023-05-17T13:24:04;2.92;;;2.47;;
32214;SDS011;18708;53.124;23.190;2023-05-17T13:26:30;2.15;;;1.95;;
32214;SDS011;18708;53.124;23.190;2023-05-17T13:28:56;1.70;;;1.60;;
32214;SDS011;18708;53.124;23.190;2023-05-17T13:31:21;3.47;;;2.00;;
32214;SDS011;18708;53.124;23.190;2023-05-17T13:33:47;1.88;;;1.77;;
32214;SDS011;18708;53.124;23.190;2023-05-17T13:36:14;2.50;;;2.28;;
32214;SDS011;18708;53.124;23.190;2023-05-17T13:38:40;2.15;;;2.00;;
32214;SDS011;18708;53.124;23.190;2023-05-17T13:41:06;2.80;;;2.40;;
32214;SDS011;18708;53.124;23.190;2023-05-17T13:43:33;2.55;;;2.20;;
32214;SDS011;18708;53.124;23.190;2023-05-17T13:45:59;3.10;;;2.17;;
32214;SDS011;18708;53.124;23.190;2023-05-17T13:48:25;2.70;;;2.33;;
32214;SDS011;18708;53.124;23.190;2023-05-17T13:50:51;2.92;;;2.72;;
32214;SDS011;18708;53.124;23.190;2023-05-17T13:53:16;3.67;;;2.63;;
32214;SDS011;18708;53.124;23.190;2023-05-17T13:55:42;3.00;;;2.08;;
32214;SDS011;18708;53.124;23.190;2023-05-17T13:58:08;2.50;;;2.30;;
32214;SDS011;18708;53.124;23.190;2023-05-17T14:00:34;2.30;;;2.10;;
32214;SDS011;18708;53.124;23.190;2023-05-17T14:03:00;2.38;;;2.17;;
32214;SDS011;18708;53.124;23.190;2023-05-17T14:05:26;2.60;;;2.40;;
32214;SDS011;18708;53.124;23.190;2023-05-17T14:07:51;2.50;;;2.20;;
32214;SDS011;18708;53.124;23.190;2023-05-17T14:10:17;4.03;;;2.63;;
32214;SDS011;18708;53.124;23.190;2023-05-17T14:12:43;2.63;;;2.42;;
32214;SDS011;18708;53.124;23.190;2023-05-17T14:15:09;2.85;;;2.60;;
32214;SDS011;18708;53.124;23.190;2023-05-17T14:17:35;2.60;;;2.40;;
32214;SDS011;18708;53.124;23.190;2023-05-17T14:20:01;2.30;;;2.10;;
32214;SDS011;18708;53.124;23.190;2023-05-17T14:22:27;3.08;;;2.78;;
32214;SDS011;18708;53.124;23.190;2023-05-17T14:24:53;2.90;;;2.60;;
32214;SDS011;18708;53.124;23.190;2023-05-17T14:27:19;3.47;;;3.17;;
32214;SDS011;18708;53.124;23.190;2023-05-17T14:29:45;5.00;;;3.25;;
32214;SDS011;18708;53.124;23.190;2023-05-17T14:32:10;4.40;;;3.20;;
32214;SDS011;18708;53.124;23.190;2023-05-17T14:34:38;5.40;;;3.20;;
32214;SDS011;18708;53.124;23.190;2023-05-17T14:37:03;3.65;;;3.13;;
32214;SDS011;18708;53.124;23.190;2023-05-17T14:39:29;4.97;;;3.30;;
32214;SDS011;18708;53.124;23.190;2023-05-17T14:41:55;4.10;;;3.70;;
32214;SDS011;18708;53.124;23.190;2023-05-17T14:44:20;3.83;;;3.30;;
32214;SDS011;18708;53.124;23.190;2023-05-17T14:46:46;3.20;;;2.90;;
32214;SDS011;18708;53.124;23.190;2023-05-17T14:49:12;3.00;;;2.70;;
32214;SDS011;18708;53.124;23.190;2023-05-17T14:51:37;3.35;;;3.08;;
32214;SDS011;18708;53.124;23.190;2023-05-17T14:54:04;4.07;;;3.35;;